createdAt,value
2023-05-11T00:02:14.021Z,2.30
2023-05-11T00:04:41.130Z,2.13
2023-05-11T00:07:07.840Z,2.30
2023-05-11T00:09:35.460Z,2.20
2023-05-11T00:12:02.832Z,2.30
2023-05-11T00:14:29.469Z,2.30
2023-05-11T00:16:56.134Z,2.03
2023-05-11T00:19:22.770Z,1.97
2023-05-11T00:21:49.427Z,2.30
2023-05-11T00:24:16.112Z,2.30
2023-05-11T00:26:42.697Z,2.20
2023-05-11T00:29:09.356Z,2.17
2023-05-11T00:31:36.005Z,2.43
2023-05-11T00:34:02.652Z,2.30
2023-05-11T00:36:33.131Z,2.30
2023-05-11T00:39:00.050Z,2.57
2023-05-11T00:41:26.686Z,2.60
2023-05-11T00:43:53.274Z,2.17
2023-05-11T00:46:20.635Z,2.20
2023-05-11T00:48:47.337Z,2.87
2023-05-11T00:51:14.051Z,2.77
2023-05-11T00:53:40.799Z,2.53
2023-05-11T00:56:08.499Z,2.33
2023-05-11T00:58:38.457Z,2.23
2023-05-11T01:01:05.611Z,2.47
2023-05-11T01:03:34.251Z,2.50
2023-05-11T01:06:19.769Z,2.70
2023-05-11T01:09:06.786Z,2.50
2023-05-11T01:11:51.727Z,2.20
2023-05-11T01:14:46.383Z,2.20
2023-05-11T01:17:25.369Z,2.40
2023-05-11T01:19:59.193Z,2.23
2023-05-11T01:22:48.979Z,2.40
2023-05-11T01:25:40.375Z,2.10
2023-05-11T01:28:33.431Z,2.60
2023-05-11T01:31:08.874Z,2.50
2023-05-11T01:33:39.454Z,2.37
2023-05-11T01:36:09.891Z,2.43
2023-05-11T01:38:40.631Z,2.33
2023-05-11T01:41:17.572Z,2.57
2023-05-11T01:43:58.149Z,3.83
2023-05-11T01:46:27.363Z,3.47
2023-05-11T01:48:57.080Z,3.20
2023-05-11T01:51:31.344Z,3.07
2023-05-11T01:53:59.528Z,2.73
2023-05-11T01:56:27.889Z,2.70
2023-05-11T01:58:56.928Z,2.70
2023-05-11T02:01:24.785Z,2.57
2023-05-11T02:03:53.534Z,2.70
2023-05-11T02:06:21.707Z,2.83
2023-05-11T02:08:50.608Z,2.67
2023-05-11T02:11:18.177Z,2.90
2023-05-11T02:13:46.714Z,2.70
2023-05-11T02:16:15.163Z,2.73
2023-05-11T02:18:43.016Z,2.70
2023-05-11T02:21:11.003Z,2.50
2023-05-11T02:23:38.961Z,3.00
2023-05-11T02:26:08.392Z,3.13
2023-05-11T02:28:35.952Z,2.80
2023-05-11T02:31:09.224Z,2.50
2023-05-11T02:33:43.462Z,2.70
2023-05-11T02:36:14.554Z,3.13
2023-05-11T02:38:43.305Z,2.80
2023-05-11T02:41:16.028Z,3.33
2023-05-11T02:43:48.134Z,2.93
2023-05-11T02:46:17.422Z,2.77
2023-05-11T02:48:49.413Z,2.90
2023-05-11T02:51:18.926Z,2.97
2023-05-11T02:53:47.265Z,2.77
2023-05-11T02:56:14.041Z,2.70
2023-05-11T02:58:41.042Z,3.03
2023-05-11T03:01:07.939Z,3.10
2023-05-11T03:03:34.844Z,3.37
2023-05-11T03:06:01.600Z,3.17
2023-05-11T03:08:28.411Z,4.10
2023-05-11T03:10:56.557Z,3.20
2023-05-11T03:13:24.691Z,3.37
2023-05-11T03:15:52.784Z,3.43
2023-05-11T03:18:20.223Z,3.27
2023-05-11T03:20:48.070Z,3.00
2023-05-11T03:23:16.696Z,2.90
2023-05-11T03:25:44.197Z,2.70
2023-05-11T03:28:12.646Z,2.57
2023-05-11T03:30:40.891Z,2.70
2023-05-11T03:33:07.567Z,2.63
2023-05-11T03:35:36.496Z,3.20
2023-05-11T03:38:05.031Z,2.67
2023-05-11T03:40:34.496Z,2.80
2023-05-11T03:43:03.994Z,2.57
2023-05-11T03:45:32.966Z,2.20
2023-05-11T03:48:00.340Z,2.70
2023-05-11T03:50:27.735Z,2.50
2023-05-11T03:52:55.948Z,2.67
2023-05-11T03:55:22.955Z,2.70
2023-05-11T03:57:49.898Z,2.70
2023-05-11T04:00:17.164Z,2.60
2023-05-11T04:02:44.322Z,2.60
2023-05-11T04:05:12.148Z,2.20
2023-05-11T04:07:39.187Z,2.10
2023-05-11T04:10:06.820Z,2.53
2023-05-11T04:12:33.458Z,2.00
2023-05-11T04:15:00.280Z,2.30
2023-05-11T04:17:26.951Z,2.30
2023-05-11T04:19:53.605Z,2.30
2023-05-11T04:22:20.370Z,2.57
2023-05-11T04:24:46.997Z,2.77
2023-05-11T04:27:13.694Z,2.50
2023-05-11T04:29:40.437Z,2.30
2023-05-11T04:32:07.049Z,2.40
2023-05-11T04:34:33.806Z,2.50
2023-05-11T04:37:00.531Z,3.00
2023-05-11T04:39:27.170Z,2.10
2023-05-11T04:41:53.782Z,2.30
2023-05-11T04:44:20.390Z,2.90
2023-05-11T04:46:47.092Z,2.30
2023-05-11T04:49:13.780Z,2.70
2023-05-11T04:51:40.471Z,1.87
2023-05-11T04:54:07.122Z,2.17
2023-05-11T04:56:33.719Z,2.43
2023-05-11T04:59:00.322Z,2.30
2023-05-11T05:01:26.935Z,1.90
2023-05-11T05:03:53.629Z,2.20
2023-05-11T05:06:20.402Z,2.30
2023-05-11T05:08:48.421Z,1.80
2023-05-11T05:11:15.090Z,2.20
2023-05-11T05:13:41.872Z,2.50
2023-05-11T05:16:08.482Z,2.53
2023-05-11T05:18:35.458Z,2.50
2023-05-11T05:21:02.344Z,2.40
2023-05-11T05:23:29.012Z,2.53
2023-05-11T05:25:55.730Z,2.00
2023-05-11T05:28:22.705Z,1.90
2023-05-11T05:30:49.366Z,1.90
2023-05-11T05:33:15.992Z,2.20
2023-05-11T05:35:46.742Z,2.10
2023-05-11T05:38:13.441Z,2.63
2023-05-11T05:40:40.409Z,2.40
2023-05-11T05:43:07.299Z,2.80
2023-05-11T05:45:34.287Z,1.83
2023-05-11T05:48:01.185Z,2.30
2023-05-11T05:50:28.372Z,2.40
2023-05-11T05:52:55.319Z,2.40
2023-05-11T05:55:22.440Z,2.60
2023-05-11T05:57:49.346Z,2.80
2023-05-11T06:00:16.807Z,2.40
2023-05-11T06:02:44.136Z,2.90
2023-05-11T06:05:11.130Z,3.00
2023-05-11T06:07:38.138Z,2.60
2023-05-11T06:10:05.446Z,2.90
2023-05-11T06:12:32.286Z,2.53
2023-05-11T06:14:59.068Z,2.30
2023-05-11T06:17:28.347Z,2.90
2023-05-11T06:19:55.328Z,2.53
2023-05-11T06:22:22.207Z,2.47
2023-05-11T06:24:49.133Z,2.43
2023-05-11T06:27:18.137Z,2.50
2023-05-11T06:29:45.284Z,1.93
2023-05-11T06:32:12.067Z,2.70
2023-05-11T06:34:39.502Z,2.50
2023-05-11T06:37:06.355Z,2.20
2023-05-11T06:39:37.550Z,2.50
2023-05-11T06:42:06.543Z,2.50
2023-05-11T06:44:34.192Z,2.57
2023-05-11T06:47:01.034Z,2.60
2023-05-11T06:49:27.689Z,2.37
2023-05-11T06:51:54.286Z,2.60
2023-05-11T06:54:20.924Z,2.23
2023-05-11T06:56:47.499Z,2.60
2023-05-11T06:59:14.179Z,3.10
2023-05-11T07:01:40.870Z,3.03
2023-05-11T07:04:07.651Z,2.50
2023-05-11T07:06:34.451Z,2.50
2023-05-11T07:09:01.103Z,2.70
2023-05-11T07:11:27.861Z,2.70
2023-05-11T07:13:54.438Z,2.40
2023-05-11T07:16:21.457Z,2.97
2023-05-11T07:18:48.171Z,2.73
2023-05-11T07:21:15.068Z,2.60
2023-05-11T07:23:42.754Z,2.67
2023-05-11T07:26:09.592Z,2.60
2023-05-11T07:28:37.080Z,2.90
2023-05-11T07:31:04.319Z,2.90
2023-05-11T07:33:31.726Z,2.80
2023-05-11T07:35:58.461Z,2.60
2023-05-11T07:38:25.153Z,3.13
2023-05-11T07:40:51.807Z,2.70
2023-05-11T07:43:18.444Z,2.40
2023-05-11T07:45:45.515Z,2.77
2023-05-11T07:48:12.209Z,2.93
2023-05-11T07:50:39.062Z,3.00
2023-05-11T07:53:05.946Z,2.90
2023-05-11T07:55:33.314Z,2.60
2023-05-11T07:58:00.283Z,2.47
2023-05-11T08:00:27.658Z,2.70
2023-05-11T08:02:54.644Z,2.60
2023-05-11T08:05:22.147Z,2.50
2023-05-11T08:07:49.176Z,3.00
2023-05-11T08:10:16.034Z,2.53
2023-05-11T08:12:42.941Z,2.63
2023-05-11T08:15:10.214Z,2.40
2023-05-11T08:17:37.435Z,2.67
2023-05-11T08:20:08.603Z,2.60
2023-05-11T08:22:35.458Z,2.93
2023-05-11T08:25:03.743Z,2.80
2023-05-11T08:27:30.580Z,3.23
2023-05-11T08:29:57.417Z,2.90
2023-05-11T08:32:24.306Z,2.93
2023-05-11T08:34:51.377Z,3.03
2023-05-11T08:37:18.759Z,3.50
2023-05-11T08:39:47.910Z,3.00
2023-05-11T08:42:17.847Z,3.00
2023-05-11T08:44:44.927Z,2.90
2023-05-11T08:49:42.690Z,3.30
2023-05-11T08:52:10.619Z,3.37
2023-05-11T08:54:39.542Z,3.10
2023-05-11T08:57:07.082Z,3.20
2023-05-11T08:59:35.484Z,3.50
2023-05-11T09:02:03.503Z,3.40
2023-05-11T09:04:31.386Z,3.60
2023-05-11T09:06:58.914Z,3.37
2023-05-11T09:09:25.682Z,3.50
2023-05-11T09:11:54.225Z,3.20
2023-05-11T09:14:27.100Z,3.70
2023-05-11T09:16:54.252Z,4.20
2023-05-11T09:19:21.945Z,4.23
2023-05-11T09:21:48.778Z,3.73
2023-05-11T09:24:15.674Z,4.03
2023-05-11T09:26:42.596Z,4.17
2023-05-11T09:29:09.643Z,4.47
2023-05-11T09:31:36.647Z,3.93
2023-05-11T09:34:16.929Z,3.90
2023-05-11T09:36:45.493Z,4.13
2023-05-11T09:39:15.910Z,3.93
2023-05-11T09:41:43.508Z,4.10
2023-05-11T09:44:12.728Z,4.37
2023-05-11T09:46:41.038Z,4.57
2023-05-11T09:49:08.925Z,4.17
2023-05-11T09:51:37.982Z,4.40
2023-05-11T09:54:26.225Z,4.60
2023-05-11T09:56:54.611Z,4.40
2023-05-11T09:59:38.577Z,4.30
2023-05-11T10:02:24.003Z,4.10
2023-05-11T10:04:52.769Z,3.90
2023-05-11T10:07:31.361Z,3.47
2023-05-11T10:10:02.552Z,4.10
2023-05-11T10:12:31.056Z,4.00
2023-05-11T10:15:10.175Z,4.33
2023-05-11T10:17:37.911Z,4.30
2023-05-11T10:20:06.679Z,3.87
2023-05-11T10:22:33.853Z,4.80
2023-05-11T10:25:01.541Z,4.37
2023-05-11T10:27:28.788Z,4.37
2023-05-11T10:29:58.335Z,4.17
2023-05-11T10:32:25.872Z,3.30
2023-05-11T10:34:52.792Z,3.30
2023-05-11T10:37:21.287Z,3.43
2023-05-11T10:39:52.274Z,3.37
2023-05-11T10:43:00.367Z,2.83
2023-05-11T10:45:51.650Z,2.90
2023-05-11T10:48:24.114Z,3.13
2023-05-11T10:51:27.793Z,3.13
2023-05-11T10:54:26.636Z,3.77
2023-05-11T10:57:14.115Z,3.67
2023-05-11T10:59:57.965Z,3.17
2023-05-11T11:02:31.375Z,3.20
2023-05-11T11:05:01.075Z,3.40
2023-05-11T11:07:28.493Z,3.23
2023-05-11T11:10:00.651Z,3.37
2023-05-11T11:12:31.132Z,3.93
2023-05-11T11:15:04.289Z,3.20
2023-05-11T11:17:35.855Z,3.70
2023-05-11T11:20:04.641Z,3.50
2023-05-11T11:22:38.673Z,4.30
2023-05-11T11:25:07.079Z,3.37
2023-05-11T11:27:48.780Z,3.37
2023-05-11T11:30:29.705Z,4.63
2023-05-11T11:33:16.710Z,3.93
2023-05-11T11:35:44.937Z,4.40
2023-05-11T11:38:12.760Z,4.27
2023-05-11T11:40:52.867Z,4.60
2023-05-11T11:43:21.621Z,4.90
2023-05-11T11:45:55.351Z,5.27
2023-05-11T11:48:31.177Z,4.00
2023-05-11T11:51:06.456Z,4.63
2023-05-11T11:53:42.495Z,4.43
2023-05-11T11:56:29.974Z,4.60
2023-05-11T11:59:01.075Z,5.53
2023-05-11T12:01:30.753Z,5.30
2023-05-11T12:04:18.086Z,3.43
2023-05-11T12:06:49.788Z,4.07
2023-05-11T12:09:19.307Z,4.13
2023-05-11T12:11:47.912Z,4.93
2023-05-11T12:14:15.409Z,4.03
2023-05-11T12:16:42.330Z,4.30
2023-05-11T12:19:09.249Z,4.80
2023-05-11T12:21:36.378Z,4.70
2023-05-11T12:24:06.312Z,4.83
2023-05-11T12:26:34.543Z,4.83
2023-05-11T12:29:15.870Z,4.53
2023-05-11T12:31:45.179Z,3.87
2023-05-11T12:34:20.014Z,4.33
2023-05-11T12:36:48.410Z,3.93
2023-05-11T12:39:26.507Z,5.00
2023-05-11T12:41:56.121Z,5.10
2023-05-11T12:44:25.899Z,5.47
2023-05-11T12:46:53.545Z,4.80
2023-05-11T12:49:26.230Z,4.83
2023-05-11T12:52:00.014Z,5.43
2023-05-11T12:54:34.197Z,4.50
2023-05-11T12:57:03.022Z,4.27
2023-05-11T12:59:39.964Z,4.30
2023-05-11T13:02:20.757Z,4.10
2023-05-11T13:04:48.378Z,4.10
2023-05-11T13:07:24.923Z,4.40
2023-05-11T13:10:00.344Z,4.10
2023-05-11T13:12:31.745Z,4.13
2023-05-11T13:15:15.164Z,4.73
2023-05-11T13:17:43.214Z,4.40
2023-05-11T13:20:39.749Z,4.03
2023-05-11T13:23:11.512Z,4.23
2023-05-11T13:25:50.254Z,4.30
2023-05-11T13:28:19.057Z,4.50
2023-05-11T13:30:46.616Z,4.30
2023-05-11T13:33:13.630Z,4.80
2023-05-11T13:35:41.713Z,4.57
2023-05-11T13:38:09.609Z,4.20
2023-05-11T13:40:36.753Z,3.97
2023-05-11T13:43:03.836Z,4.27
2023-05-11T13:45:30.667Z,4.67
2023-05-11T13:47:57.334Z,4.63
2023-05-11T13:50:25.996Z,4.23
2023-05-11T13:52:53.344Z,4.03
2023-05-11T13:55:23.115Z,4.20
2023-05-11T13:57:49.816Z,3.70
2023-05-11T14:00:17.004Z,3.93
2023-05-11T14:02:44.984Z,3.77
2023-05-11T14:05:11.867Z,3.20
2023-05-11T14:07:46.206Z,3.23
2023-05-11T14:10:14.479Z,3.40
2023-05-11T14:12:41.532Z,2.97
2023-05-11T14:15:09.020Z,3.20
2023-05-11T14:17:36.056Z,3.40
2023-05-11T14:20:03.913Z,3.40
2023-05-11T14:22:30.848Z,3.17
2023-05-11T14:24:57.676Z,2.93
2023-05-11T14:27:24.653Z,3.30
2023-05-11T14:29:52.287Z,3.13
2023-05-11T14:32:19.607Z,3.57
2023-05-11T14:34:46.850Z,3.50
2023-05-11T14:37:13.691Z,3.20
2023-05-11T14:39:41.283Z,3.37
2023-05-11T14:42:08.271Z,3.17
2023-05-11T14:44:35.096Z,3.17
2023-05-11T14:47:01.787Z,3.43
2023-05-11T14:49:28.736Z,3.30
2023-05-11T14:51:56.548Z,3.40
2023-05-11T14:54:23.294Z,2.87
2023-05-11T14:56:53.789Z,3.17
2023-05-11T14:59:21.532Z,3.03
2023-05-11T15:01:49.376Z,3.40
2023-05-11T15:04:18.919Z,3.50
2023-05-11T15:06:45.778Z,3.77
2023-05-11T15:09:12.442Z,3.30
2023-05-11T15:11:39.108Z,3.47
2023-05-11T15:14:07.041Z,3.27
2023-05-11T15:16:33.792Z,3.27
2023-05-11T15:19:00.635Z,3.77
2023-05-11T15:21:27.902Z,3.40
2023-05-11T15:23:54.878Z,3.20
2023-05-11T15:26:22.857Z,3.47
2023-05-11T15:28:50.370Z,3.30
2023-05-11T15:31:17.427Z,3.70
2023-05-11T15:33:44.873Z,3.20
2023-05-11T15:36:13.436Z,3.17
2023-05-11T15:38:40.989Z,3.47
2023-05-11T15:41:07.952Z,3.90
2023-05-11T15:43:35.321Z,3.90
2023-05-11T15:46:03.785Z,3.23
2023-05-11T15:48:31.178Z,3.57
2023-05-11T15:51:00.054Z,3.60
2023-05-11T15:53:27.457Z,3.27
2023-05-11T15:55:55.638Z,3.43
2023-05-11T15:58:23.357Z,3.40
2023-05-11T16:00:50.339Z,3.50
2023-05-11T16:03:17.487Z,2.80
2023-05-11T16:05:44.939Z,2.70
2023-05-11T16:08:12.170Z,2.10
2023-05-11T16:10:39.083Z,2.30
2023-05-11T16:13:06.081Z,2.37
2023-05-11T16:15:33.093Z,1.90
2023-05-11T16:18:02.198Z,2.20
2023-05-11T16:20:31.147Z,2.47
2023-05-11T16:22:57.974Z,2.13
2023-05-11T16:25:24.862Z,1.80
2023-05-11T16:27:51.712Z,1.80
2023-05-11T16:30:24.953Z,2.23
2023-05-11T16:32:53.942Z,1.70
2023-05-11T16:35:21.656Z,1.70
2023-05-11T16:37:48.742Z,1.73
2023-05-11T16:40:19.016Z,1.77
2023-05-11T16:42:49.580Z,1.60
2023-05-11T16:45:16.707Z,1.40
2023-05-11T16:47:47.161Z,1.60
2023-05-11T16:50:14.869Z,1.50
2023-05-11T16:52:42.529Z,1.23
2023-05-11T16:55:10.009Z,1.37
2023-05-11T16:57:37.118Z,1.23
2023-05-11T17:00:04.429Z,1.50
2023-05-11T17:02:31.507Z,1.40
2023-05-11T17:04:58.445Z,1.20
2023-05-11T17:07:26.337Z,1.30
2023-05-11T17:10:08.442Z,1.20
2023-05-11T17:12:35.981Z,1.53
2023-05-11T17:15:03.595Z,1.60
2023-05-11T17:17:30.368Z,1.00
2023-05-11T17:19:57.822Z,1.00
2023-05-11T17:22:26.002Z,0.87
2023-05-11T17:24:52.819Z,0.90
2023-05-11T17:27:19.509Z,1.17
2023-05-11T17:29:46.232Z,0.90
2023-05-11T17:32:13.178Z,0.80
2023-05-11T17:34:40.168Z,1.27
2023-05-11T17:37:07.478Z,0.87
2023-05-11T17:39:35.311Z,1.10
2023-05-11T17:42:03.543Z,1.20
2023-05-11T17:44:30.576Z,0.90
2023-05-11T17:46:58.245Z,1.10
2023-05-11T17:49:25.322Z,1.20
2023-05-11T17:51:52.120Z,0.90
2023-05-11T17:54:19.199Z,0.90
2023-05-11T17:56:45.910Z,1.20
2023-05-11T17:59:12.655Z,1.20
2023-05-11T18:01:39.572Z,1.13
2023-05-11T18:04:06.372Z,1.40
2023-05-11T18:06:34.526Z,1.40
2023-05-11T18:09:01.478Z,1.10
2023-05-11T18:11:30.552Z,1.03
2023-05-11T18:13:57.439Z,1.13
2023-05-11T18:16:24.297Z,1.30
2023-05-11T18:18:51.709Z,1.27
2023-05-11T18:21:19.024Z,1.10
2023-05-11T18:23:45.660Z,1.13
2023-05-11T18:26:13.970Z,1.57
2023-05-11T18:28:40.648Z,1.20
2023-05-11T18:31:07.288Z,1.10
2023-05-11T18:33:33.966Z,0.80
2023-05-11T18:36:02.543Z,1.20
2023-05-11T18:38:29.241Z,1.10
2023-05-11T18:40:56.350Z,1.13
2023-05-11T18:43:23.202Z,1.20
2023-05-11T18:45:51.444Z,1.27
2023-05-11T18:48:19.609Z,1.20
2023-05-11T18:50:53.072Z,1.30
2023-05-11T18:53:19.838Z,1.30
2023-05-11T18:55:53.261Z,1.57
2023-05-11T18:58:21.136Z,1.30
2023-05-11T19:00:48.945Z,1.60
2023-05-11T19:03:16.233Z,1.33
2023-05-11T19:05:43.939Z,1.33
2023-05-11T19:08:11.100Z,1.50
2023-05-11T19:10:39.332Z,1.23
2023-05-11T19:13:06.880Z,1.40
2023-05-11T19:15:34.068Z,1.20
2023-05-11T19:18:02.761Z,1.40
2023-05-11T19:20:29.555Z,1.37
2023-05-11T19:22:56.849Z,1.33
2023-05-11T19:25:23.570Z,1.37
2023-05-11T19:27:50.309Z,1.60
2023-05-11T19:30:17.131Z,1.40
2023-05-11T19:32:44.453Z,1.80
2023-05-11T19:35:12.621Z,1.80
2023-05-11T19:37:39.342Z,1.70
2023-05-11T19:40:38.065Z,1.87
2023-05-11T19:42:53.761Z,1.77
2023-05-11T19:45:22.016Z,1.87
2023-05-11T19:47:48.701Z,2.30
2023-05-11T19:50:15.393Z,2.07
2023-05-11T19:52:42.098Z,2.40
2023-05-11T19:55:08.942Z,1.87
2023-05-11T19:57:37.275Z,2.03
2023-05-11T20:00:08.063Z,2.10
2023-05-11T20:02:35.512Z,2.30
2023-05-11T20:05:04.414Z,2.30
2023-05-11T20:07:31.921Z,2.20
2023-05-11T20:09:58.595Z,2.53
2023-05-11T20:12:25.396Z,2.87
2023-05-11T20:14:52.791Z,2.60
2023-05-11T20:17:22.216Z,2.70
2023-05-11T20:19:51.591Z,2.53
2023-05-11T20:22:18.377Z,2.47
2023-05-11T20:24:44.994Z,2.57
2023-05-11T20:27:11.683Z,2.80
2023-05-11T20:29:40.268Z,2.43
2023-05-11T20:32:07.531Z,2.70
2023-05-11T20:34:34.482Z,2.63
2023-05-11T20:37:01.263Z,2.83
2023-05-11T20:39:28.309Z,2.93
2023-05-11T20:41:57.328Z,2.83
2023-05-11T20:44:23.982Z,2.83
2023-05-11T20:46:50.675Z,3.10
2023-05-11T20:49:30.899Z,3.30
2023-05-11T20:52:04.851Z,3.30
2023-05-11T20:54:33.685Z,3.30
2023-05-11T20:57:01.377Z,3.30
2023-05-11T21:01:58.971Z,3.87
2023-05-11T21:04:25.783Z,3.07
2023-05-11T21:06:55.463Z,3.40
2023-05-11T21:09:22.127Z,3.57
2023-05-11T21:11:48.936Z,3.33
2023-05-11T21:14:15.817Z,3.70
2023-05-11T21:16:42.716Z,3.90
2023-05-11T21:19:09.387Z,3.03
2023-05-11T21:21:36.097Z,3.50
2023-05-11T21:24:03.877Z,3.60
2023-05-11T21:26:30.536Z,3.50
2023-05-11T21:28:57.610Z,3.13
2023-05-11T21:31:24.338Z,3.33
2023-05-11T21:33:51.884Z,3.63
2023-05-11T21:36:18.567Z,3.63
2023-05-11T21:38:45.233Z,3.73
2023-05-11T21:41:11.869Z,3.10
2023-05-11T21:43:38.526Z,3.27
2023-05-11T21:46:08.163Z,3.47
2023-05-11T21:48:34.785Z,3.90
2023-05-11T21:51:01.388Z,3.40
2023-05-11T21:53:28.049Z,3.27
2023-05-11T21:55:54.988Z,3.00
2023-05-11T21:58:21.688Z,3.80
2023-05-11T22:00:48.350Z,3.90
2023-05-11T22:03:15.158Z,3.47
2023-05-11T22:05:42.173Z,3.80
2023-05-11T22:08:14.826Z,3.47
2023-05-11T22:10:43.037Z,3.57
2023-05-11T22:13:09.831Z,3.40
2023-05-11T22:15:36.702Z,3.40
2023-05-11T22:18:03.732Z,3.80
2023-05-11T22:20:31.709Z,3.30
2023-05-11T22:22:59.025Z,3.30
2023-05-11T22:25:25.878Z,3.63
2023-05-11T22:27:52.636Z,3.27
2023-05-11T22:30:19.862Z,3.50
2023-05-11T22:32:47.233Z,3.47
2023-05-11T22:35:14.213Z,3.17
2023-05-11T22:37:40.963Z,3.30
2023-05-11T22:40:08.729Z,3.30
2023-05-11T22:42:35.402Z,3.20
2023-05-11T22:45:02.199Z,3.10
2023-05-11T22:47:29.291Z,3.20
2023-05-11T22:49:55.978Z,3.00
2023-05-11T22:52:22.665Z,3.07
2023-05-11T22:54:57.818Z,3.50
2023-05-11T22:57:26.277Z,3.13
2023-05-11T22:59:52.852Z,2.90
2023-05-11T23:02:19.845Z,3.30
2023-05-11T23:04:51.799Z,3.17
2023-05-11T23:07:19.211Z,3.17
2023-05-11T23:09:45.896Z,3.20
2023-05-11T23:12:13.371Z,3.17
2023-05-11T23:14:40.048Z,3.27
2023-05-11T23:17:06.692Z,3.10
2023-05-11T23:19:33.609Z,3.20
2023-05-11T23:22:00.560Z,3.30
2023-05-11T23:24:28.762Z,3.33
2023-05-11T23:26:55.417Z,3.13
2023-05-11T23:29:22.083Z,2.90
2023-05-11T23:31:48.944Z,3.07
2023-05-11T23:34:15.730Z,3.13
2023-05-11T23:36:42.442Z,3.23
2023-05-11T23:39:09.551Z,3.50
2023-05-11T23:41:36.331Z,3.27
2023-05-11T23:44:03.258Z,2.77
2023-05-11T23:46:30.150Z,3.20
2023-05-11T23:48:56.804Z,3.20
2023-05-11T23:51:25.287Z,2.80
2023-05-11T23:53:51.885Z,2.93
2023-05-11T23:56:18.525Z,3.33
2023-05-11T23:58:48.133Z,3.20
